Terminal Aerodrome Forecast
Issued by NWS

Home | Current Version | Previous Version | Text Only | Print | Product List | Glossary On
Versions: 1 2 3 4 5 6 7 8 9 10 11 12 13 14 15 16 17
030
FTUS41 KCLE 071456 AAA
TAFFDY
TAF AMD
KFDY 071456Z 0715/0812 20012KT P6SM BKN120
     FM072300 21008KT P6SM OVC040
     FM080300 22008KT 4SM -RA BR OVC025
     FM080600 23006KT 1 1/2SM -SN BR OVC015
     FM081100 26005KT 1 1/2SM -SN BR OVC003=

USA.gov is the U.S. government's official web portal to all federal, state and local government web resources and services.